Time;durP1;ratioP1;P1;durP2;ratioP2;P2;SDS_P1;SDS_P2;PMS_P1;PMS_P2;Temp;Humidity;BMP_temperature;BMP_pressure;BME280_temperature;BME280_humidity;BME280_pressure;Samples;Min_cycle;Max_cycle;Signal;HPM_P1;HPM_P2
2022/12/15 00:39:29;;;;;;;38.03;23.02;;;;;;;-7.91;100.00;100675.25;5014382;28;20444;-78
2022/12/15 00:41:55;;;;;;;38.63;21.33;;;;;;;-7.86;100.00;100689.50;5012835;28;20046;-75
2022/12/15 00:44:22;;;;;;;38.67;21.52;;;;;;;-7.86;100.00;100682.00;4996628;28;20516;-79
2022/12/15 00:46:53;;;;;;;41.90;23.70;;;;;;;-7.82;100.00;100693.72;5013015;28;20040;-78
2022/12/15 01:22:06;;;;;;;36.90;22.40;;;;;;;-7.77;100.00;100706.28;5013827;28;20036;-80
2022/12/15 01:24:32;;;;;;;37.72;22.27;;;;;;;-7.71;100.00;100715.53;5013373;28;20074;-80
2022/12/15 01:26:58;;;;;;;40.53;23.83;;;;;;;-7.77;100.00;100700.44;5013547;28;20031;-80
2022/12/15 01:29:24;;;;;;;38.53;23.48;;;;;;;-7.67;100.00;100727.25;5012300;28;20026;-79
2022/12/15 01:31:49;;;;;;;38.83;24.83;;;;;;;-7.65;100.00;100728.97;5013314;28;20025;-79
2022/12/15 01:34:16;;;;;;;38.38;25.00;;;;;;;-7.67;100.00;100733.16;5013528;28;20444;-79
2022/12/15 01:36:41;;;;;;;37.00;22.50;;;;;;;-7.70;100.00;100739.78;5013439;28;20018;-79
2022/12/15 01:39:07;;;;;;;38.35;24.40;;;;;;;-7.91;100.00;100711.16;5013173;28;20063;-80
2022/12/15 01:41:32;;;;;;;43.28;24.25;;;;;;;-7.87;100.00;100720.38;5013218;28;20037;-80
2022/12/15 01:44:21;;;;;;;40.65;23.70;;;;;;;-7.78;100.00;100737.19;5013265;28;20045;-80
2022/12/15 01:46:49;;;;;;;42.05;24.88;;;;;;;-8.03;100.00;100701.03;5013262;28;20148;-80
2022/12/15 01:49:25;;;;;;;38.38;23.58;;;;;;;-7.86;100.00;100724.59;5013261;28;20021;-80
2022/12/15 01:51:54;;;;;;;39.08;22.02;;;;;;;-7.83;100.00;100742.16;4994859;28;20045;-80
2022/12/15 01:54:22;;;;;;;35.95;21.85;;;;;;;-7.86;100.00;100747.16;5012997;28;20018;-78
2022/12/15 01:56:51;;;;;;;39.75;22.83;;;;;;;-7.88;100.00;100745.44;5012991;28;20528;-79
2022/12/15 01:59:28;;;;;;;41.15;24.17;;;;;;;-7.95;100.00;100729.53;5013208;28;20021;-77
2022/12/15 02:01:53;;;;;;;38.67;22.67;;;;;;;-8.10;100.00;100715.16;5013172;28;20037;-77
2022/12/15 02:04:21;;;;;;;39.22;21.52;;;;;;;-8.11;100.00;100728.50;5012942;28;20026;-78
2022/12/15 02:06:46;;;;;;;40.40;24.23;;;;;;;-8.15;100.00;100721.78;5013002;28;20033;-77
2022/12/15 02:09:13;;;;;;;38.00;23.27;;;;;;;-8.02;100.00;100750.31;5013240;28;20026;-78
2022/12/15 02:11:53;;;;;;;41.13;23.52;;;;;;;-8.27;100.00;100715.78;4995511;28;20374;-78
2022/12/15 02:14:39;;;;;;;38.08;22.33;;;;;;;-8.15;100.00;100754.34;5013064;28;20026;-77
2022/12/15 02:17:25;;;;;;;43.60;24.08;;;;;;;-8.10;100.00;100757.72;5012403;28;20041;-78
2022/12/15 02:20:26;;;;;;;39.22;22.95;;;;;;;-8.16;100.00;100756.81;5012891;28;20030;-78
2022/12/15 02:23:15;;;;;;;40.38;23.92;;;;;;;-8.06;100.00;100770.28;4952652;29;20035;-78
2022/12/15 02:25:53;;;;;;;36.95;23.85;;;;;;;-8.09;100.00;100779.47;4952511;29;20050;-77
2022/12/15 02:29:05;;;;;;;40.53;24.27;;;;;;;-8.09;100.00;100771.94;4952370;29;20035;-78
2022/12/15 02:31:48;;;;;;;39.75;22.23;;;;;;;-8.32;100.00;100745.78;4952075;29;20593;-79
2022/12/15 02:34:25;;;;;;;37.45;23.67;;;;;;;-8.27;100.00;100760.84;4952883;29;20067;-78
2022/12/15 02:36:57;;;;;;;42.15;23.95;;;;;;;-8.17;100.00;100778.53;4952304;29;20114;-78
2022/12/15 02:39:24;;;;;;;40.40;25.05;;;;;;;-8.20;100.00;100777.66;4952380;29;20042;-79
2022/12/15 02:41:51;;;;;;;38.92;23.08;;;;;;;-8.21;100.00;100775.97;4952188;29;20419;-80
2022/12/15 02:44:18;;;;;;;39.67;22.48;;;;;;;-8.22;100.00;100776.78;4952268;29;20080;-78
2022/12/15 02:46:49;;;;;;;39.65;24.35;;;;;;;-8.20;100.00;100777.66;4952318;29;20502;-78
2022/12/15 02:49:26;;;;;;;37.70;22.38;;;;;;;-8.23;100.00;100775.97;4952476;29;20027;-78
2022/12/15 02:52:10;;;;;;;40.25;22.98;;;;;;;-8.23;100.00;100775.13;4952357;29;20027;-80
2022/12/15 02:54:48;;;;;;;39.03;22.90;;;;;;;-8.24;100.00;100768.44;4952399;29;20170;-79
2022/12/15 02:57:46;;;;;;;41.90;23.58;;;;;;;-8.43;100.00;100742.34;4991944;28;20417;-78
2022/12/15 03:00:14;;;;;;;40.55;24.40;;;;;;;-8.41;100.00;100750.72;5012425;28;20045;-80
2022/12/15 03:02:45;;;;;;;37.42;22.60;;;;;;;-8.51;100.00;100739.72;5012623;28;20026;-79
2022/12/15 03:05:12;;;;;;;41.40;24.70;;;;;;;-8.33;100.00;100781.66;5013479;28;20037;-80
2022/12/15 03:07:37;;;;;;;41.72;24.23;;;;;;;-8.41;100.00;100750.72;5016175;28;20037;-79
2022/12/15 03:10:05;;;;;;;44.50;26.05;;;;;;;-8.25;100.00;100774.25;5015924;28;20030;-80
2022/12/15 03:12:30;;;;;;;39.13;24.00;;;;;;;-8.20;100.00;100777.66;4998291;28;20025;-80
2022/12/15 03:14:56;;;;;;;39.50;24.45;;;;;;;-8.18;100.00;100781.00;5015893;28;20392;-78
2022/12/15 03:17:22;;;;;;;40.08;23.45;;;;;;;-8.21;100.00;100784.31;5016095;28;20022;-80
2022/12/15 03:19:47;;;;;;;42.72;25.55;;;;;;;-8.22;100.00;100786.81;5015846;28;20032;-78
2022/12/15 03:22:13;;;;;;;39.40;24.05;;;;;;;-8.36;100.00;100774.13;5015819;28;20116;-79
2022/12/15 03:24:38;;;;;;;41.22;24.05;;;;;;;-8.25;100.00;100796.81;5015641;28;20026;-78
2022/12/15 03:27:04;;;;;;;37.45;23.80;;;;;;;-8.36;100.00;100778.28;5014131;28;20052;-78
2022/12/15 03:29:29;;;;;;;39.92;24.88;;;;;;;-8.44;100.00;100765.69;5015891;28;20381;-80
2022/12/15 03:31:54;;;;;;;42.60;24.35;;;;;;;-8.32;100.00;100795.03;5015590;28;20524;-77
2022/12/15 03:34:20;;;;;;;41.38;23.40;;;;;;;-8.46;100.00;100777.34;5015581;28;20088;-78
2022/12/15 03:36:45;;;;;;;43.60;26.08;;;;;;;-8.30;100.00;100804.25;5015292;28;20547;-78
2022/12/15 03:39:11;;;;;;;42.30;26.02;;;;;;;-8.34;100.00;100792.50;5015300;28;20026;-80
2022/12/15 03:41:36;;;;;;;41.55;23.33;;;;;;;-8.23;100.00;100810.19;5015295;28;20073;-80
2022/12/15 03:44:02;;;;;;;37.83;23.17;;;;;;;-8.22;100.00;100809.34;5015203;28;20026;-79
2022/12/15 03:46:27;;;;;;;44.00;26.83;;;;;;;-8.20;100.00;100806.03;5015430;28;20026;-79
2022/12/15 03:48:53;;;;;;;42.53;26.15;;;;;;;-8.18;100.00;100806.06;5015372;28;20030;-80
2022/12/15 03:51:19;;;;;;;42.55;25.15;;;;;;;-8.17;100.00;100806.06;5015260;28;20028;-80
2022/12/15 03:53:46;;;;;;;43.45;27.33;;;;;;;-8.15;100.00;100814.47;5015132;28;20030;-79
2022/12/15 03:56:12;;;;;;;39.63;24.20;;;;;;;-8.37;100.00;100777.47;5015336;28;20053;-80
2022/12/15 03:58:38;;;;;;;44.13;27.45;;;;;;;-8.43;100.00;100758.22;5015030;28;20065;-80
2022/12/15 04:01:18;;;;;;;44.67;27.50;;;;;;;-8.15;100.00;100803.63;5015110;28;20053;-80
2022/12/15 04:03:43;;;;;;;45.95;26.58;;;;;;;-8.09;100.00;100814.53;5015141;28;20104;-80
2022/12/15 04:06:08;;;;;;;47.33;28.65;;;;;;;-8.00;100.00;100803.78;5014820;28;20038;-79
2022/12/15 04:08:33;;;;;;;44.13;27.98;;;;;;;-7.96;100.00;100804.66;5014914;28;20025;-80
2022/12/15 04:10:59;;;;;;;42.72;24.60;;;;;;;-8.09;100.00;100779.47;5014982;28;20156;-79
2022/12/15 04:13:24;;;;;;;45.38;27.00;;;;;;;-7.91;100.00;100801.38;5014845;28;20057;-80
2022/12/15 04:15:49;;;;;;;50.65;27.48;;;;;;;-7.90;100.00;100805.56;5014617;28;20041;-80
2022/12/15 04:18:15;;;;;;;44.60;28.63;;;;;;;-7.96;100.00;100799.63;5068257;23;20517;-79
2022/12/15 04:20:40;;;;;;;50.05;26.73;;;;;;;-7.95;100.00;100806.34;5014737;28;20092;-79
2022/12/15 04:23:09;;;;;;;42.45;25.23;;;;;;;-7.95;100.00;100806.34;5014528;28;20104;-79
2022/12/15 05:34:15;;;;;;;45.65;27.23;;;;;;;-8.53;100.00;100811.47;5013857;28;20133;-79
2022/12/15 05:36:41;;;;;;;45.65;27.98;;;;;;;-8.41;100.00;100840.84;5013416;28;20485;-78
2022/12/15 05:39:06;;;;;;;46.38;28.08;;;;;;;-8.52;100.00;100825.69;5013455;28;20084;-80
2022/12/15 05:41:31;;;;;;;47.00;27.45;;;;;;;-8.63;100.00;100814.66;5013667;28;20520;-78
2022/12/15 05:43:57;;;;;;;44.15;25.85;;;;;;;-8.46;100.00;100835.75;5013215;28;20488;-80
2022/12/15 05:46:22;;;;;;;43.58;27.25;;;;;;;-8.46;100.00;100843.28;5013350;28;20108;-81
2022/12/15 05:48:47;;;;;;;47.58;28.00;;;;;;;-8.42;100.00;100842.53;5013399;28;20088;-78
2022/12/15 05:51:13;;;;;;;46.78;27.55;;;;;;;-8.63;100.00;100813.84;4995786;28;20037;-80
2022/12/15 05:53:40;;;;;;;47.83;27.38;;;;;;;-8.44;100.00;100860.84;5013265;28;20084;-80
2022/12/15 05:56:11;;;;;;;46.60;29.58;;;;;;;-8.44;100.00;100853.34;5013333;28;20065;-77
2022/12/15 05:58:37;;;;;;;;;;;;;;;-8.44;100.00;100851.69;5013511;28;20430;-77
2022/12/15 06:01:07;;;;;;;50.20;26.10;;;;;;;-8.49;100.00;100847.41;5013107;28;20000;-79
2022/12/15 06:03:33;;;;;;;47.97;29.52;;;;;;;-8.56;100.00;100840.63;5013209;28;20366;-80
2022/12/15 06:05:59;;;;;;;49.28;28.73;;;;;;;-8.49;100.00;100860.75;5013155;28;20080;-77
2022/12/15 06:08:29;;;;;;;49.17;27.58;;;;;;;-8.67;100.00;100826.28;5013195;28;20362;-77
2022/12/15 06:10:55;;;;;;;46.83;26.90;;;;;;;-8.51;100.00;100864.91;5011564;28;20033;-77
2022/12/15 06:13:22;;;;;;;48.17;29.38;;;;;;;-8.53;100.00;100859.06;5013116;28;20040;-79
2022/12/15 06:15:54;;;;;;;50.85;31.63;;;;;;;-8.60;100.00;100849.75;5012921;28;20030;-79
2022/12/15 06:18:20;;;;;;;49.92;30.75;;;;;;;-8.50;100.00;100865.75;5012894;28;20096;-80
2022/12/15 06:20:45;;;;;;;51.45;30.33;;;;;;;-8.58;100.00;100849.78;5012992;28;20026;-80
2022/12/15 06:23:10;;;;;;;52.65;31.02;;;;;;;-8.46;100.00;100867.47;5012004;28;20033;-80
2022/12/15 06:25:36;;;;;;;46.13;29.17;;;;;;;-8.47;100.00;100871.63;5013158;28;20025;-77
2022/12/15 06:28:01;;;;;;;50.15;30.00;;;;;;;-8.44;100.00;100873.38;5013064;28;20061;-79
2022/12/15 06:30:26;;;;;;;51.85;31.75;;;;;;;-8.54;100.00;100849.84;4994922;28;20426;-79
2022/12/15 06:32:53;;;;;;;52.17;28.67;;;;;;;-8.46;100.00;100868.31;5013088;28;20030;-80
2022/12/15 06:35:20;;;;;;;47.55;28.55;;;;;;;-8.52;100.00;100853.22;5011864;28;20056;-77
2022/12/15 06:37:45;;;;;;;54.45;29.80;;;;;;;-8.63;100.00;100831.34;5013058;28;20104;-79
2022/12/15 06:40:12;;;;;;;49.92;30.50;;;;;;;-8.47;100.00;100864.13;5015527;28;20065;-77
2022/12/15 06:42:37;;;;;;;50.92;29.55;;;;;;;-8.68;100.00;100836.28;5016572;28;20072;-79
2022/12/15 06:45:03;;;;;;;54.30;30.45;;;;;;;-8.53;100.00;100870.72;5016529;28;20034;-79
2022/12/15 06:47:28;;;;;;;48.58;30.02;;;;;;;-8.53;100.00;100879.06;5015154;28;20501;-80
2022/12/15 06:49:54;;;;;;;49.22;29.13;;;;;;;-8.54;100.00;100879.06;5016512;28;20068;-79
2022/12/15 06:52:20;;;;;;;46.95;29.10;;;;;;;-8.99;100.00;100805.78;5016521;28;20105;-80
2022/12/15 06:54:45;;;;;;;51.75;31.55;;;;;;;-8.69;100.00;100857.13;5016279;28;20053;-80
2022/12/15 06:57:10;;;;;;;51.22;31.55;;;;;;;-8.64;100.00;100864.72;5016405;28;20022;-82
2022/12/15 06:59:35;;;;;;;55.50;31.00;;;;;;;-8.69;100.00;100862.13;5015595;28;20040;-78
2022/12/15 07:02:01;;;;;;;51.45;29.38;;;;;;;-8.74;100.00;100846.22;5016335;28;20018;-80
2022/12/15 07:04:26;;;;;;;50.92;32.22;;;;;;;-8.64;100.00;100873.06;5016413;28;20026;-79
2022/12/15 07:06:51;;;;;;;55.15;33.05;;;;;;;-8.60;100.00;100876.44;5016247;28;20018;-78
2022/12/15 07:09:17;;;;;;;52.63;32.13;;;;;;;-8.68;100.00;100863.81;5016363;28;20026;-80
2022/12/15 07:11:42;;;;;;;56.55;33.08;;;;;;;-8.55;100.00;100888.22;5016235;28;20057;-80
2022/12/15 07:14:08;;;;;;;55.75;32.47;;;;;;;-8.76;100.00;100852.81;5014570;28;20068;-80
2022/12/15 07:16:34;;;;;;;56.42;35.13;;;;;;;-8.62;100.00;100858.91;5016110;28;20026;-80
2022/12/15 07:18:59;;;;;;;54.72;32.67;;;;;;;-8.40;100.00;100892.63;5015999;28;20467;-80
2022/12/15 07:21:25;;;;;;;58.72;36.50;;;;;;;-8.65;100.00;100851.38;5016034;28;20070;-80
2022/12/15 07:23:50;;;;;;;55.15;33.92;;;;;;;-8.69;100.00;100862.97;5015743;28;20077;-81
2022/12/15 07:26:15;;;;;;;55.53;32.10;;;;;;;-8.73;100.00;100855.41;5016312;28;20018;-79
2022/12/15 07:28:41;;;;;;;59.60;34.30;;;;;;;-8.68;100.00;100861.31;5015903;28;20045;-80
2022/12/15 07:31:10;;;;;;;57.28;33.53;;;;;;;-8.43;100.00;100903.44;5014575;28;20037;-79
2022/12/15 07:33:36;;;;;;;54.42;31.65;;;;;;;-8.61;100.00;100870.59;5016326;28;20030;-80
2022/12/15 07:36:03;;;;;;;56.40;32.53;;;;;;;-8.45;100.00;100895.06;5015606;28;20022;-80
2022/12/15 07:38:29;;;;;;;51.00;30.10;;;;;;;-8.38;100.00;100901.00;5015258;28;20057;-80
2022/12/15 07:40:59;;;;;;;53.92;33.38;;;;;;;-8.52;100.00;100869.91;5015716;28;20069;-80
2022/12/15 07:43:24;;;;;;;55.75;31.52;;;;;;;-8.51;100.00;100879.09;5015514;28;20060;-79
2022/12/15 07:45:51;;;;;;;60.47;33.42;;;;;;;-8.36;100.00;100906.00;5015364;28;20029;-79
2022/12/15 07:48:17;;;;;;;61.72;34.58;;;;;;;-8.39;100.00;100902.66;5015216;28;20025;-77
2022/12/15 07:50:42;;;;;;;59.55;33.28;;;;;;;-8.39;100.00;100912.66;5014627;28;20026;-81
2022/12/15 07:53:07;;;;;;;56.30;33.08;;;;;;;-8.35;100.00;100912.72;5015176;28;20106;-79
2022/12/15 07:55:33;;;;;;;55.67;32.33;;;;;;;-8.34;100.00;100917.72;5015559;28;20025;-80
2022/12/15 07:57:58;;;;;;;65.22;36.90;;;;;;;-8.43;100.00;100888.41;5015191;28;20474;-80
2022/12/15 08:00:24;;;;;;;59.78;33.97;;;;;;;-8.23;100.00;100920.41;5015418;28;20030;-79
2022/12/15 08:02:49;;;;;;;58.20;35.17;;;;;;;-8.16;100.00;100919.63;5014972;28;20474;-79
2022/12/15 08:05:14;;;;;;;59.38;34.58;;;;;;;-8.10;100.00;100922.25;5015195;28;20422;-77
2022/12/15 08:07:40;;;;;;;60.90;34.20;;;;;;;-8.27;100.00;100886.94;5015297;28;20104;-78
2022/12/15 08:10:05;;;;;;;58.28;32.42;;;;;;;-8.01;100.00;100924.03;5014967;28;20121;-78
2022/12/15 08:12:31;;;;;;;60.47;35.65;;;;;;;-8.15;100.00;100897.16;5015121;28;20022;-76
2022/12/15 08:14:56;;;;;;;56.78;34.75;;;;;;;-7.94;100.00;100934.19;5015106;28;20033;-78
2022/12/15 08:17:21;;;;;;;57.38;34.15;;;;;;;-8.10;100.00;100898.03;5014701;28;20033;-76
2022/12/15 08:19:47;;;;;;;58.92;35.35;;;;;;;-7.86;100.00;100925.09;5014400;28;20576;-80
2022/12/15 08:22:14;;;;;;;56.17;34.03;;;;;;;-7.83;100.00;100936.84;5014774;28;20462;-80
2022/12/15 08:24:40;;;;;;;54.80;32.80;;;;;;;-7.79;100.00;100933.53;5014674;28;20536;-74
2022/12/15 08:27:05;;;;;;;54.92;32.78;;;;;;;-7.75;100.00;100939.44;5014753;28;20034;-81
2022/12/15 08:29:30;;;;;;;57.45;34.78;;;;;;;-8.01;100.00;100888.97;5014520;28;20026;-81
2022/12/15 08:32:00;;;;;;;54.67;32.88;;;;;;;-7.81;100.00;100915.13;5014420;28;20026;-81
2022/12/15 08:34:26;;;;;;;60.42;36.15;;;;;;;-7.63;100.00;100934.59;5014665;28;20030;-79
2022/12/15 08:36:51;;;;;;;57.28;36.45;;;;;;;-7.61;100.00;100926.25;5014857;28;20034;-82
2022/12/15 08:39:16;;;;;;;57.13;34.58;;;;;;;-7.75;100.00;100902.69;5014107;28;20034;-81
2022/12/15 08:41:48;;;;;;;55.78;34.63;;;;;;;-7.68;100.00;100916.13;5014354;28;20037;-80
2022/12/15 08:44:15;;;;;;;62.65;37.63;;;;;;;-7.51;100.00;100930.56;5014298;28;20033;-80
2022/12/15 08:46:40;;;;;;;64.90;38.92;;;;;;;-7.65;100.00;100891.09;5014231;28;20030;-82
2022/12/15 08:49:07;;;;;;;64.60;38.00;;;;;;;-7.33;100.00;100939.13;5013926;28;20100;-80
2022/12/15 08:51:32;;;;;;;63.40;37.75;;;;;;;-7.27;100.00;100950.09;5014495;28;20441;-81
2022/12/15 08:53:59;;;;;;;62.05;37.13;;;;;;;-7.50;100.00;100903.81;5014050;28;20065;-81
2022/12/15 08:56:26;;;;;;;62.53;36.80;;;;;;;-7.32;100.00;100919.06;5014541;28;20536;-81
2022/12/15 08:59:00;;;;;;;65.97;37.90;;;;;;;-7.09;100.00;100948.59;5014241;28;20105;-81
2022/12/15 09:01:28;;;;;;;68.13;38.80;;;;;;;-7.01;100.00;100947.00;5013971;28;20036;-79
2022/12/15 09:03:55;;;;;;;62.08;38.20;;;;;;;-6.98;100.00;100952.91;5013041;28;20021;-80
2022/12/15 09:06:23;;;;;;;58.60;35.05;;;;;;;-6.91;100.00;100955.47;5014053;28;20021;-80
2022/12/15 09:08:48;;;;;;;66.07;39.53;;;;;;;-6.84;100.00;100959.72;5013941;28;20496;-79
2022/12/15 09:11:14;;;;;;;69.10;39.60;;;;;;;-6.93;100.00;100935.38;5014054;28;20030;-78
2022/12/15 09:13:40;;;;;;;63.85;37.35;;;;;;;-6.68;100.00;100961.56;5014113;28;20026;-82
2022/12/15 09:16:12;;;;;;;70.07;40.22;;;;;;;-6.66;100.00;100952.38;5013714;28;20169;-80
2022/12/15 09:18:37;;;;;;;68.78;38.47;;;;;;;-6.65;100.00;100933.97;5013426;28;20034;-81
2022/12/15 09:21:06;;;;;;;67.30;41.38;;;;;;;-6.62;100.00;100933.97;5013782;28;20393;-80
2022/12/15 09:23:32;;;;;;;67.28;39.90;;;;;;;-6.34;100.00;100977.78;4995966;28;20041;-81
2022/12/15 09:26:01;;;;;;;66.70;41.80;;;;;;;-6.30;100.00;100979.47;5013936;28;20120;-79
2022/12/15 09:28:28;;;;;;;65.90;38.90;;;;;;;-6.40;100.00;100953.44;5013641;28;20050;-79
2022/12/15 09:31:07;;;;;;;60.13;37.92;;;;;;;-6.31;100.00;100961.88;5013565;28;20025;-76
2022/12/15 09:33:33;;;;;;;67.35;40.28;;;;;;;-6.43;100.00;100934.97;5012164;28;20124;-79
2022/12/15 09:35:59;;;;;;;65.93;39.38;;;;;;;-6.51;100.00;100911.47;5013606;28;20358;-83
2022/12/15 09:38:24;;;;;;;73.95;45.10;;;;;;;-5.98;100.00;100987.28;5013558;28;20028;-80
2022/12/15 09:40:50;;;;;;;68.20;39.38;;;;;;;-6.43;100.00;100917.41;5012028;28;20488;-80
2022/12/15 09:43:23;;;;;;;67.55;39.60;;;;;;;-5.89;100.00;100999.88;5013867;28;20109;-79
2022/12/15 09:45:53;;;;;;;68.13;40.10;;;;;;;-5.82;100.00;101005.78;5013798;28;20026;-82
2022/12/15 09:48:20;;;;;;;68.00;40.63;;;;;;;-5.75;100.00;101014.22;5013088;28;20032;-80
2022/12/15 09:50:49;;;;;;;68.32;43.72;;;;;;;-5.66;100.00;101012.59;5013378;28;20358;-76
2022/12/15 09:53:16;;;;;;;63.78;41.22;;;;;;;-5.60;100.00;101017.66;5013510;28;20040;-76
2022/12/15 09:55:47;;;;;;;74.10;39.83;;;;;;;-5.60;100.00;101012.63;5012116;28;20024;-77
2022/12/15 09:58:12;;;;;;;65.07;38.17;;;;;;;-5.55;100.00;101013.50;5012514;28;20377;-80
2022/12/15 10:00:55;;;;;;;70.53;41.38;;;;;;;-5.50;100.00;101006.81;5013346;28;20033;-77
2022/12/15 10:03:21;;;;;;;68.78;41.15;;;;;;;-5.45;100.00;101001.81;4995285;28;20029;-79
2022/12/15 10:06:19;;;;;;;68.53;41.17;;;;;;;-5.41;100.00;101003.50;5013225;28;20472;-76
2022/12/15 10:08:54;;;;;;;71.72;42.42;;;;;;;-5.53;100.00;100996.72;5013388;28;20062;-80
2022/12/15 10:11:43;;;;;;;63.97;42.45;;;;;;;-5.39;100.00;101014.44;5013340;28;20025;-79
2022/12/15 10:14:26;;;;;;;60.33;38.75;;;;;;;-5.33;100.00;101019.47;5014397;28;20068;-81
2022/12/15 10:17:24;;;;;;;68.15;40.45;;;;;;;-5.26;100.00;101015.31;5017488;28;20420;-73
2022/12/15 10:20:03;;;;;;;69.88;42.05;;;;;;;-5.17;100.00;101015.38;5004937;28;20480;-76
2022/12/15 10:22:36;;;;;;;66.05;41.53;;;;;;;-5.22;100.00;100987.63;5017184;28;20033;-78
2022/12/15 10:25:30;;;;;;;65.40;39.85;;;;;;;-5.01;100.00;101009.56;5016931;28;20436;-76
2022/12/15 10:28:02;;;;;;;66.35;39.45;;;;;;;-5.00;100.00;100987.75;5017156;28;20072;-73
2022/12/15 10:30:27;;;;;;;;;;;;;;;-4.89;100.00;101002.88;5017449;28;20503;-77
2022/12/15 10:33:09;;;;;;;62.58;40.50;;;;;;;-4.81;100.00;100998.72;5016836;28;19914;-76
2022/12/15 10:35:36;;;;;;;65.10;41.45;;;;;;;-4.80;100.00;101000.38;5014747;28;20022;-75
2022/12/15 10:38:16;;;;;;;65.40;39.28;;;;;;;-4.73;100.00;101007.94;5017010;28;20025;-75
2022/12/15 10:40:46;;;;;;;70.63;45.60;;;;;;;-4.64;100.00;100999.56;5016723;28;20382;-78
2022/12/15 10:43:14;;;;;;;69.28;44.17;;;;;;;-4.56;100.00;101002.94;5015344;28;20080;-77
2022/12/15 10:45:39;;;;;;;68.97;41.22;;;;;;;-4.49;100.00;101001.28;5016908;28;20034;-77
2022/12/15 10:48:05;;;;;;;65.15;41.42;;;;;;;-4.45;100.00;101008.84;5016744;28;20492;-78
2022/12/15 10:50:33;;;;;;;70.57;42.30;;;;;;;-4.39;100.00;101008.84;5016339;28;20022;-77
2022/12/15 10:52:59;;;;;;;75.07;44.05;;;;;;;-4.45;100.00;100998.75;5016280;28;20076;-78
2022/12/15 10:55:44;;;;;;;78.35;45.67;;;;;;;-4.37;100.00;101001.28;5016546;28;20068;-77
2022/12/15 10:58:19;;;;;;;70.05;44.00;;;;;;;-4.30;100.00;101013.06;5016344;28;20053;-74
2022/12/15 11:00:45;;;;;;;69.88;42.97;;;;;;;-4.21;100.00;101007.19;5016594;28;20524;-80
2022/12/15 11:03:25;;;;;;;69.43;42.88;;;;;;;-4.30;100.00;100981.97;5016905;28;20026;-76
2022/12/15 11:05:55;;;;;;;69.35;43.35;;;;;;;-4.06;100.00;101002.13;5016310;28;20390;-77
2022/12/15 11:08:22;;;;;;;68.65;42.42;;;;;;;-4.23;100.00;100968.50;5016368;28;20026;-78
2022/12/15 11:14:03;;;;;;;64.50;40.42;;;;;;;-3.93;100.00;101000.44;5016797;28;20068;-79
2022/12/15 11:16:29;;;;;;;65.15;42.25;;;;;;;-3.88;100.00;100988.66;5016231;28;20463;-78
2022/12/15 11:19:09;;;;;;;63.42;39.83;;;;;;;-3.94;100.00;100979.41;5014638;28;20045;-77
2022/12/15 11:21:41;;;;;;;60.85;39.38;;;;;;;-3.81;100.00;100985.31;5015765;28;20030;-79
2022/12/15 11:24:16;;;;;;;62.22;39.95;;;;;;;-3.65;100.00;100996.19;5016033;28;20022;-77
2022/12/15 11:26:57;;;;;;;59.38;39.40;;;;;;;-3.62;100.00;100992.00;5015079;28;20045;-78
2022/12/15 11:29:26;;;;;;;62.30;39.00;;;;;;;-3.60;100.00;100987.78;5015291;28;20105;-77
2022/12/15 11:31:53;;;;;;;63.25;39.58;;;;;;;-3.65;100.00;100981.88;5016052;28;20024;-77
2022/12/15 11:34:35;;;;;;;66.85;40.55;;;;;;;-3.59;100.00;100991.13;5016340;28;20347;-77
2022/12/15 11:37:36;;;;;;;61.00;38.00;;;;;;;-3.52;100.00;100997.88;5015503;28;20113;-77
2022/12/15 11:40:33;;;;;;;60.65;39.95;;;;;;;-3.51;100.00;100994.50;5015613;28;20033;-77
2022/12/15 11:43:27;;;;;;;62.80;37.28;;;;;;;-3.42;100.00;100998.69;5015623;28;20474;-79
2022/12/15 11:46:10;;;;;;;61.15;38.55;;;;;;;-3.38;100.00;100993.59;5015566;28;20398;-77
2022/12/15 11:48:49;;;;;;;59.72;38.97;;;;;;;-3.44;100.00;100972.56;5015508;28;20467;-76
2022/12/15 11:51:22;;;;;;;61.45;40.25;;;;;;;-3.29;100.00;100978.41;5014991;28;20032;-76
2022/12/15 11:53:57;;;;;;;61.60;38.42;;;;;;;-3.12;100.00;100997.72;5015135;28;20167;-76
2022/12/15 11:56:38;;;;;;;65.00;40.03;;;;;;;-3.08;100.00;100990.13;5015368;28;20389;-77
2022/12/15 11:59:33;;;;;;;60.42;38.28;;;;;;;-3.04;100.00;100999.38;5015399;28;20457;-76
2022/12/15 12:02:36;;;;;;;61.25;37.72;;;;;;;-3.00;100.00;100982.50;5015440;28;20037;-79
2022/12/15 12:05:14;;;;;;;58.70;37.53;;;;;;;-3.08;100.00;100962.31;5015109;28;20036;-81
2022/12/15 12:07:45;;;;;;;65.93;40.47;;;;;;;-2.93;100.00;100985.00;5015264;28;20385;-77
2022/12/15 12:10:38;;;;;;;62.13;39.15;;;;;;;-2.98;100.00;100974.06;5013589;28;20038;-80
2022/12/15 12:13:13;;;;;;;62.38;38.85;;;;;;;-2.99;100.00;100969.03;5015045;28;20367;-76
2022/12/15 12:15:54;;;;;;;60.78;39.30;;;;;;;-2.83;100.00;100977.38;5014921;28;20041;-77
2022/12/15 12:18:50;;;;;;;61.42;39.38;;;;;;;-2.80;100.00;100975.66;5014753;28;20040;-80
2022/12/15 12:21:23;;;;;;;59.45;38.50;;;;;;;-2.78;100.00;100973.13;5012696;28;20050;-72
2022/12/15 12:23:57;;;;;;;64.90;40.08;;;;;;;-2.96;100.00;100939.50;5014700;28;20037;-78
2022/12/15 12:26:44;;;;;;;63.83;39.90;;;;;;;-2.93;100.00;100959.72;5014694;28;20026;-77
2022/12/15 12:29:19;;;;;;;60.78;38.30;;;;;;;-2.92;100.00;100956.34;5013049;28;20041;-78
2022/12/15 12:32:00;;;;;;;62.42;39.63;;;;;;;-2.78;100.00;100966.38;5013464;28;20105;-78
2022/12/15 12:34:31;;;;;;;65.10;39.00;;;;;;;-2.74;100.00;100959.63;5014551;28;20030;-79
2022/12/15 12:37:12;;;;;;;62.75;39.63;;;;;;;-2.72;100.00;100950.34;5014247;28;20034;-76
2022/12/15 12:39:38;;;;;;;57.88;38.58;;;;;;;-2.75;100.00;100952.88;5014610;28;20026;-78
2022/12/15 12:42:15;;;;;;;60.05;39.20;;;;;;;-2.70;100.00;100957.06;5014621;28;20397;-80
2022/12/15 12:44:40;;;;;;;61.90;39.63;;;;;;;-2.76;100.00;100934.34;5014020;28;20449;-78
2022/12/15 12:47:28;;;;;;;64.35;39.78;;;;;;;-2.52;100.00;100962.84;5013755;28;20064;-77
2022/12/15 12:50:01;;;;;;;58.08;38.10;;;;;;;-2.45;100.00;100967.00;5013992;28;20193;-78
2022/12/15 12:52:36;;;;;;;61.72;39.05;;;;;;;-2.50;100.00;100951.88;5012977;28;20018;-77
2022/12/15 12:55:10;;;;;;;59.20;38.38;;;;;;;-2.45;100.00;100959.44;5014471;28;20358;-77
2022/12/15 12:57:41;;;;;;;62.63;38.72;;;;;;;-2.56;100.00;100929.13;5014068;28;20520;-80
2022/12/15 13:00:06;;;;;;;63.93;40.63;;;;;;;-2.38;100.00;100950.91;5014211;28;20033;-79
2022/12/15 13:02:36;;;;;;;56.15;36.38;;;;;;;-2.27;100.00;100949.13;5013967;28;20037;-79
2022/12/15 13:05:04;;;;;;;64.22;39.33;;;;;;;-2.17;100.00;100948.22;5014210;28;20029;-78
2022/12/15 13:07:35;;;;;;;57.28;37.92;;;;;;;-2.25;100.00;100919.63;5013742;28;20381;-77
2022/12/15 13:10:21;;;;;;;59.67;37.63;;;;;;;-2.15;100.00;100927.97;5013906;28;20076;-79
2022/12/15 13:12:58;;;;;;;58.28;37.10;;;;;;;-2.18;100.00;100913.66;5013712;28;20037;-78
2022/12/15 13:15:26;;;;;;;56.95;37.03;;;;;;;-2.02;100.00;100934.59;5013757;28;20022;-77
2022/12/15 13:17:57;;;;;;;56.67;37.90;;;;;;;-2.01;100.00;100916.03;5013904;28;20029;-77
2022/12/15 13:20:25;;;;;;;59.05;38.75;;;;;;;-1.84;100.00;100925.97;4992085;28;20050;-75
2022/12/15 13:22:51;;;;;;;59.85;37.53;;;;;;;-1.71;100.00;100925.00;4993629;28;20536;-78
2022/12/15 13:25:32;;;;;;;54.20;36.78;;;;;;;-1.54;100.00;100920.56;4993949;28;20035;-75
2022/12/15 13:28:00;;;;;;;55.45;36.95;;;;;;;-1.49;100.00;100885.88;4994200;28;20428;-78
2022/12/15 13:30:25;;;;;;;55.60;36.83;;;;;;;-1.13;100.00;100921.75;4993998;28;20446;-75
2022/12/15 13:32:54;;;;;;;58.70;37.13;;;;;;;-1.04;100.00;100918.25;4992940;28;20037;-78
2022/12/15 13:35:25;;;;;;;52.28;35.60;;;;;;;-1.00;100.00;100918.19;4993957;28;20045;-74
2022/12/15 13:37:58;;;;;;;52.55;35.72;;;;;;;-1.13;100.00;100878.66;4993884;28;20077;-75
2022/12/15 13:40:25;;;;;;;57.22;35.63;;;;;;;-0.90;100.00;100896.91;4993876;28;20453;-76